sensor_id;sensor_type;location;lat;lon;timestamp;temperature;humidity
33645;DHT22;19986;48.190;16.366;2023-06-10T00:01:47;20.30;99.90
33645;DHT22;19986;48.190;16.366;2023-06-10T00:04:14;20.20;99.90
33645;DHT22;19986;48.190;16.366;2023-06-10T00:06:40;20.30;99.90
33645;DHT22;19986;48.190;16.366;2023-06-10T00:09:06;20.30;99.90
33645;DHT22;19986;48.190;16.366;2023-06-10T00:11:37;20.20;99.90
33645;DHT22;19986;48.190;16.366;2023-06-10T00:14:03;20.30;99.90
33645;DHT22;19986;48.190;16.366;2023-06-10T00:16:29;20.30;99.90
33645;DHT22;19986;48.190;16.366;2023-06-10T00:18:56;20.30;99.90
33645;DHT22;19986;48.190;16.366;2023-06-10T00:21:31;20.30;99.90
33645;DHT22;19986;48.190;16.366;2023-06-10T00:24:07;20.20;99.90
33645;DHT22;19986;48.190;16.366;2023-06-10T00:26:38;20.20;99.90
33645;DHT22;19986;48.190;16.366;2023-06-10T00:29:05;20.20;99.90
33645;DHT22;19986;48.190;16.366;2023-06-10T00:31:31;20.20;99.90
33645;DHT22;19986;48.190;16.366;2023-06-10T00:33:56;20.10;99.90
33645;DHT22;19986;48.190;16.366;2023-06-10T00:36:24;20.20;99.90
33645;DHT22;19986;48.190;16.366;2023-06-10T00:38:50;20.10;99.90
33645;DHT22;19986;48.190;16.366;2023-06-10T00:41:16;20.10;99.90
33645;DHT22;19986;48.190;16.366;2023-06-10T00:43:42;20.10;99.90
33645;DHT22;19986;48.190;16.366;2023-06-10T00:46:08;20.20;99.90
33645;DHT22;19986;48.190;16.366;2023-06-10T00:48:34;20.20;99.90
33645;DHT22;19986;48.190;16.366;2023-06-10T00:51:00;20.10;99.90
33645;DHT22;19986;48.190;16.366;2023-06-10T00:53:27;20.10;99.90
33645;DHT22;19986;48.190;16.366;2023-06-10T00:55:53;20.10;99.90
33645;DHT22;19986;48.190;16.366;2023-06-10T00:58:19;20.10;99.90
33645;DHT22;19986;48.190;16.366;2023-06-10T01:00:45;20.10;99.90
33645;DHT22;19986;48.190;16.366;2023-06-10T01:03:12;20.10;99.90
33645;DHT22;19986;48.190;16.366;2023-06-10T01:05:38;20.10;99.90
33645;DHT22;19986;48.190;16.366;2023-06-10T01:08:26;20.20;99.90
33645;DHT22;19986;48.190;16.366;2023-06-10T01:10:57;20.20;99.90
33645;DHT22;19986;48.190;16.366;2023-06-10T01:13:26;20.20;99.90
33645;DHT22;19986;48.190;16.366;2023-06-10T01:15:55;20.30;99.90
33645;DHT22;19986;48.190;16.366;2023-06-10T01:18:21;20.30;99.90
33645;DHT22;19986;48.190;16.366;2023-06-10T01:20:47;20.40;99.90
33645;DHT22;19986;48.190;16.366;2023-06-10T01:23:14;20.50;99.90
33645;DHT22;19986;48.190;16.366;2023-06-10T01:26:02;20.50;99.90
33645;DHT22;19986;48.190;16.366;2023-06-10T01:28:38;20.60;99.90
33645;DHT22;19986;48.190;16.366;2023-06-10T01:31:19;20.60;99.90
33645;DHT22;19986;48.190;16.366;2023-06-10T01:33:51;20.70;99.90
33645;DHT22;19986;48.190;16.366;2023-06-10T01:36:18;20.70;99.90
33645;DHT22;19986;48.190;16.366;2023-06-10T01:38:46;20.70;99.90
33645;DHT22;19986;48.190;16.366;2023-06-10T01:41:14;20.70;99.90
33645;DHT22;19986;48.190;16.366;2023-06-10T01:43:44;20.60;99.90
33645;DHT22;19986;48.190;16.366;2023-06-10T01:46:11;20.60;99.90
33645;DHT22;19986;48.190;16.366;2023-06-10T01:48:38;20.60;99.90
33645;DHT22;19986;48.190;16.366;2023-06-10T01:51:04;20.60;99.90
33645;DHT22;19986;48.190;16.366;2023-06-10T01:53:31;20.60;99.90
33645;DHT22;19986;48.190;16.366;2023-06-10T01:55:57;20.70;99.90
33645;DHT22;19986;48.190;16.366;2023-06-10T01:58:24;20.60;99.90
33645;DHT22;19986;48.190;16.366;2023-06-10T02:00:51;20.70;99.90
33645;DHT22;19986;48.190;16.366;2023-06-10T02:03:16;20.70;99.90
33645;DHT22;19986;48.190;16.366;2023-06-10T02:05:43;20.70;99.90
33645;DHT22;19986;48.190;16.366;2023-06-10T02:08:09;20.70;99.90
33645;DHT22;19986;48.190;16.366;2023-06-10T02:10:35;20.70;99.90
33645;DHT22;19986;48.190;16.366;2023-06-10T02:13:01;20.70;99.90
33645;DHT22;19986;48.190;16.366;2023-06-10T02:15:27;20.80;99.90
33645;DHT22;19986;48.190;16.366;2023-06-10T02:17:52;20.80;99.90
33645;DHT22;19986;48.190;16.366;2023-06-10T02:20:22;20.80;99.90
33645;DHT22;19986;48.190;16.366;2023-06-10T02:22:47;20.80;99.90
33645;DHT22;19986;48.190;16.366;2023-06-10T02:25:13;20.80;99.90
33645;DHT22;19986;48.190;16.366;2023-06-10T02:27:39;20.70;99.90
33645;DHT22;19986;48.190;16.366;2023-06-10T02:30:05;20.70;99.90
33645;DHT22;19986;48.190;16.366;2023-06-10T02:32:31;20.70;99.90
33645;DHT22;19986;48.190;16.366;2023-06-10T02:34:57;20.70;99.90
33645;DHT22;19986;48.190;16.366;2023-06-10T02:37:25;20.70;99.90
33645;DHT22;19986;48.190;16.366;2023-06-10T02:39:52;20.70;99.90
33645;DHT22;19986;48.190;16.366;2023-06-10T02:42:18;20.70;99.90
33645;DHT22;19986;48.190;16.366;2023-06-10T02:44:45;20.70;99.90
33645;DHT22;19986;48.190;16.366;2023-06-10T02:47:11;20.70;99.90
33645;DHT22;19986;48.190;16.366;2023-06-10T02:49:37;20.70;99.90
33645;DHT22;19986;48.190;16.366;2023-06-10T02:52:03;20.70;99.90
33645;DHT22;19986;48.190;16.366;2023-06-10T02:54:29;20.70;99.90
33645;DHT22;19986;48.190;16.366;2023-06-10T02:56:56;20.70;99.90
33645;DHT22;19986;48.190;16.366;2023-06-10T02:59:27;20.70;99.90
33645;DHT22;19986;48.190;16.366;2023-06-10T03:01:54;20.70;99.90
33645;DHT22;19986;48.190;16.366;2023-06-10T03:04:20;20.80;99.90
33645;DHT22;19986;48.190;16.366;2023-06-10T03:06:46;20.80;99.90
33645;DHT22;19986;48.190;16.366;2023-06-10T03:09:13;20.80;99.90
33645;DHT22;19986;48.190;16.366;2023-06-10T03:11:41;20.80;99.90
33645;DHT22;19986;48.190;16.366;2023-06-10T03:14:08;20.70;99.90
33645;DHT22;19986;48.190;16.366;2023-06-10T03:16:34;20.80;99.90
33645;DHT22;19986;48.190;16.366;2023-06-10T03:19:01;20.80;99.90
33645;DHT22;19986;48.190;16.366;2023-06-10T03:21:27;20.80;99.90
33645;DHT22;19986;48.190;16.366;2023-06-10T03:23:54;20.80;99.90
33645;DHT22;19986;48.190;16.366;2023-06-10T03:26:20;20.80;99.90
33645;DHT22;19986;48.190;16.366;2023-06-10T03:28:47;20.80;99.90
33645;DHT22;19986;48.190;16.366;2023-06-10T03:31:13;20.80;99.90
33645;DHT22;19986;48.190;16.366;2023-06-10T03:33:39;20.80;99.90
33645;DHT22;19986;48.190;16.366;2023-06-10T03:36:05;20.80;99.90
33645;DHT22;19986;48.190;16.366;2023-06-10T03:38:32;20.80;99.90
33645;DHT22;19986;48.190;16.366;2023-06-10T03:40:58;20.90;99.90
33645;DHT22;19986;48.190;16.366;2023-06-10T03:43:24;20.80;99.90
33645;DHT22;19986;48.190;16.366;2023-06-10T03:45:51;20.80;99.90
33645;DHT22;19986;48.190;16.366;2023-06-10T03:48:18;20.90;99.90
33645;DHT22;19986;48.190;16.366;2023-06-10T03:50:44;20.80;99.90
33645;DHT22;19986;48.190;16.366;2023-06-10T03:53:11;20.90;99.90
33645;DHT22;19986;48.190;16.366;2023-06-10T03:55:36;20.90;99.90
33645;DHT22;19986;48.190;16.366;2023-06-10T03:58:03;20.80;99.90
33645;DHT22;19986;48.190;16.366;2023-06-10T04:00:29;20.80;99.90
33645;DHT22;19986;48.190;16.366;2023-06-10T04:02:56;20.90;99.90
33645;DHT22;19986;48.190;16.366;2023-06-10T04:05:24;21.00;99.90
33645;DHT22;19986;48.190;16.366;2023-06-10T04:07:50;21.10;99.90
33645;DHT22;19986;48.190;16.366;2023-06-10T04:10:17;21.10;99.90
33645;DHT22;19986;48.190;16.366;2023-06-10T04:12:44;21.10;99.90
33645;DHT22;19986;48.190;16.366;2023-06-10T04:15:10;21.10;99.90
33645;DHT22;19986;48.190;16.366;2023-06-10T04:17:37;21.20;99.90
33645;DHT22;19986;48.190;16.366;2023-06-10T04:20:03;21.10;99.90
33645;DHT22;19986;48.190;16.366;2023-06-10T04:22:32;21.10;99.90
33645;DHT22;19986;48.190;16.366;2023-06-10T04:24:58;21.00;99.90
33645;DHT22;19986;48.190;16.366;2023-06-10T04:27:24;21.00;99.90
33645;DHT22;19986;48.190;16.366;2023-06-10T04:29:50;21.10;99.90
33645;DHT22;19986;48.190;16.366;2023-06-10T04:32:17;21.30;99.90
33645;DHT22;19986;48.190;16.366;2023-06-10T04:34:42;21.50;99.90
33645;DHT22;19986;48.190;16.366;2023-06-10T04:37:08;21.70;99.90
33645;DHT22;19986;48.190;16.366;2023-06-10T04:39:34;21.90;99.90
33645;DHT22;19986;48.190;16.366;2023-06-10T04:42:01;22.00;99.90
33645;DHT22;19986;48.190;16.366;2023-06-10T04:44:27;22.20;99.90
33645;DHT22;19986;48.190;16.366;2023-06-10T04:46:53;22.30;99.90
33645;DHT22;19986;48.190;16.366;2023-06-10T04:49:19;22.30;99.90
33645;DHT22;19986;48.190;16.366;2023-06-10T04:51:44;22.30;99.90
33645;DHT22;19986;48.190;16.366;2023-06-10T04:54:12;22.30;99.90
33645;DHT22;19986;48.190;16.366;2023-06-10T04:56:37;22.30;99.90
33645;DHT22;19986;48.190;16.366;2023-06-10T04:59:04;22.30;99.90
33645;DHT22;19986;48.190;16.366;2023-06-10T05:01:30;22.20;99.90
33645;DHT22;19986;48.190;16.366;2023-06-10T05:03:56;22.20;99.90
33645;DHT22;19986;48.190;16.366;2023-06-10T05:06:22;22.10;99.90
33645;DHT22;19986;48.190;16.366;2023-06-10T05:08:48;22.10;99.90
33645;DHT22;19986;48.190;16.366;2023-06-10T05:11:14;22.10;99.90
33645;DHT22;19986;48.190;16.366;2023-06-10T05:13:41;22.30;99.90
33645;DHT22;19986;48.190;16.366;2023-06-10T05:16:08;22.30;99.90
33645;DHT22;19986;48.190;16.366;2023-06-10T05:18:34;22.40;99.90
33645;DHT22;19986;48.190;16.366;2023-06-10T05:21:01;22.40;99.90
33645;DHT22;19986;48.190;16.366;2023-06-10T05:23:28;22.40;99.90
33645;DHT22;19986;48.190;16.366;2023-06-10T05:25:54;22.30;99.90
33645;DHT22;19986;48.190;16.366;2023-06-10T05:28:20;22.30;99.90
33645;DHT22;19986;48.190;16.366;2023-06-10T05:30:46;22.30;99.90
33645;DHT22;19986;48.190;16.366;2023-06-10T05:33:12;22.20;99.90
33645;DHT22;19986;48.190;16.366;2023-06-10T05:35:38;22.10;99.90
33645;DHT22;19986;48.190;16.366;2023-06-10T05:38:03;22.20;99.90
33645;DHT22;19986;48.190;16.366;2023-06-10T05:40:29;22.20;99.90
33645;DHT22;19986;48.190;16.366;2023-06-10T05:42:56;22.30;99.90
33645;DHT22;19986;48.190;16.366;2023-06-10T05:45:23;22.50;99.90
33645;DHT22;19986;48.190;16.366;2023-06-10T05:47:49;22.30;99.90
33645;DHT22;19986;48.190;16.366;2023-06-10T05:50:15;22.30;99.90
33645;DHT22;19986;48.190;16.366;2023-06-10T05:52:41;22.20;99.90
33645;DHT22;19986;48.190;16.366;2023-06-10T05:55:08;22.00;99.90
33645;DHT22;19986;48.190;16.366;2023-06-10T05:57:34;22.00;99.90
33645;DHT22;19986;48.190;16.366;2023-06-10T06:00:00;21.90;99.90
33645;DHT22;19986;48.190;16.366;2023-06-10T06:02:26;21.90;99.90
33645;DHT22;19986;48.190;16.366;2023-06-10T06:04:52;21.80;99.90
33645;DHT22;19986;48.190;16.366;2023-06-10T06:07:18;21.80;99.90
33645;DHT22;19986;48.190;16.366;2023-06-10T06:09:47;21.80;99.90
33645;DHT22;19986;48.190;16.366;2023-06-10T06:12:13;21.60;99.90
33645;DHT22;19986;48.190;16.366;2023-06-10T06:14:39;21.70;99.90
33645;DHT22;19986;48.190;16.366;2023-06-10T06:17:06;21.70;99.90
33645;DHT22;19986;48.190;16.366;2023-06-10T06:19:32;21.80;99.90
33645;DHT22;19986;48.190;16.366;2023-06-10T06:21:58;21.70;99.90
33645;DHT22;19986;48.190;16.366;2023-06-10T06:24:24;21.70;99.90
33645;DHT22;19986;48.190;16.366;2023-06-10T06:26:50;21.60;99.90
33645;DHT22;19986;48.190;16.366;2023-06-10T06:29:15;21.70;99.90
33645;DHT22;19986;48.190;16.366;2023-06-10T06:31:41;21.70;99.90
33645;DHT22;19986;48.190;16.366;2023-06-10T06:34:07;21.70;99.90
33645;DHT22;19986;48.190;16.366;2023-06-10T06:36:33;21.60;99.90
33645;DHT22;19986;48.190;16.366;2023-06-10T06:39:01;21.60;99.90
33645;DHT22;19986;48.190;16.366;2023-06-10T06:41:27;21.60;99.90
33645;DHT22;19986;48.190;16.366;2023-06-10T06:43:54;21.50;99.90
33645;DHT22;19986;48.190;16.366;2023-06-10T06:46:20;21.50;99.90
33645;DHT22;19986;48.190;16.366;2023-06-10T06:48:47;21.60;99.90
33645;DHT22;19986;48.190;16.366;2023-06-10T06:51:12;21.50;99.90
33645;DHT22;19986;48.190;16.366;2023-06-10T06:53:39;21.50;99.90
33645;DHT22;19986;48.190;16.366;2023-06-10T06:56:10;21.60;99.90
33645;DHT22;19986;48.190;16.366;2023-06-10T06:58:36;21.80;99.90
33645;DHT22;19986;48.190;16.366;2023-06-10T07:01:02;21.90;99.90
33645;DHT22;19986;48.190;16.366;2023-06-10T07:03:28;21.90;99.90
33645;DHT22;19986;48.190;16.366;2023-06-10T07:05:54;22.00;99.90
33645;DHT22;19986;48.190;16.366;2023-06-10T07:08:20;22.00;99.90
33645;DHT22;19986;48.190;16.366;2023-06-10T07:10:46;22.00;99.90
33645;DHT22;19986;48.190;16.366;2023-06-10T07:13:12;22.00;99.90
33645;DHT22;19986;48.190;16.366;2023-06-10T07:15:38;22.00;99.90
33645;DHT22;19986;48.190;16.366;2023-06-10T07:18:05;22.00;99.90
33645;DHT22;19986;48.190;16.366;2023-06-10T07:20:31;22.00;99.90
33645;DHT22;19986;48.190;16.366;2023-06-10T07:22:57;22.10;99.90
33645;DHT22;19986;48.190;16.366;2023-06-10T07:25:23;22.10;99.90
33645;DHT22;19986;48.190;16.366;2023-06-10T07:27:49;22.10;99.90
33645;DHT22;19986;48.190;16.366;2023-06-10T07:30:15;22.10;99.90
33645;DHT22;19986;48.190;16.366;2023-06-10T07:32:41;22.00;99.90
33645;DHT22;19986;48.190;16.366;2023-06-10T07:35:09;22.10;99.90
33645;DHT22;19986;48.190;16.366;2023-06-10T07:37:36;22.20;99.90
33645;DHT22;19986;48.190;16.366;2023-06-10T07:40:02;22.30;99.90
33645;DHT22;19986;48.190;16.366;2023-06-10T07:42:28;22.50;99.90
33645;DHT22;19986;48.190;16.366;2023-06-10T07:44:54;22.50;99.90
33645;DHT22;19986;48.190;16.366;2023-06-10T07:47:20;22.60;99.90
33645;DHT22;19986;48.190;16.366;2023-06-10T07:49:45;22.60;99.90
33645;DHT22;19986;48.190;16.366;2023-06-10T07:52:11;22.60;99.90
33645;DHT22;19986;48.190;16.366;2023-06-10T07:54:37;22.70;99.90
33645;DHT22;19986;48.190;16.366;2023-06-10T07:57:03;22.70;99.90
33645;DHT22;19986;48.190;16.366;2023-06-10T07:59:29;22.70;99.90
33645;DHT22;19986;48.190;16.366;2023-06-10T08:01:55;22.80;99.90
33645;DHT22;19986;48.190;16.366;2023-06-10T08:04:21;22.70;99.90
33645;DHT22;19986;48.190;16.366;2023-06-10T08:06:46;22.70;99.90
33645;DHT22;19986;48.190;16.366;2023-06-10T08:09:12;22.70;99.90
33645;DHT22;19986;48.190;16.366;2023-06-10T08:11:39;22.60;99.90
33645;DHT22;19986;48.190;16.366;2023-06-10T08:14:05;22.50;99.90
33645;DHT22;19986;48.190;16.366;2023-06-10T08:16:31;22.50;99.90
33645;DHT22;19986;48.190;16.366;2023-06-10T08:18:57;22.50;99.90
33645;DHT22;19986;48.190;16.366;2023-06-10T08:21:23;22.40;99.90
33645;DHT22;19986;48.190;16.366;2023-06-10T08:23:52;22.40;99.90
33645;DHT22;19986;48.190;16.366;2023-06-10T08:26:20;22.40;99.90
33645;DHT22;19986;48.190;16.366;2023-06-10T08:28:45;22.40;99.90
33645;DHT22;19986;48.190;16.366;2023-06-10T08:31:11;22.40;99.90
33645;DHT22;19986;48.190;16.366;2023-06-10T08:33:37;22.40;99.90
33645;DHT22;19986;48.190;16.366;2023-06-10T08:36:03;22.30;99.90
33645;DHT22;19986;48.190;16.366;2023-06-10T08:38:29;22.30;99.90
33645;DHT22;19986;48.190;16.366;2023-06-10T08:40:59;22.20;99.90
33645;DHT22;19986;48.190;16.366;2023-06-10T08:43:44;22.20;99.90
33645;DHT22;19986;48.190;16.366;2023-06-10T08:46:12;22.20;99.90
33645;DHT22;19986;48.190;16.366;2023-06-10T08:48:42;22.30;99.90
33645;DHT22;19986;48.190;16.366;2023-06-10T08:51:11;22.30;99.90
33645;DHT22;19986;48.190;16.366;2023-06-10T08:53:41;22.50;99.90
33645;DHT22;19986;48.190;16.366;2023-06-10T08:56:09;22.60;99.90
33645;DHT22;19986;48.190;16.366;2023-06-10T08:58:39;22.70;99.90
33645;DHT22;19986;48.190;16.366;2023-06-10T09:01:08;22.60;99.90
33645;DHT22;19986;48.190;16.366;2023-06-10T09:03:36;22.70;99.90
33645;DHT22;19986;48.190;16.366;2023-06-10T09:06:05;22.80;99.90
33645;DHT22;19986;48.190;16.366;2023-06-10T09:08:33;22.90;99.90
33645;DHT22;19986;48.190;16.366;2023-06-10T09:11:00;22.90;99.90
33645;DHT22;19986;48.190;16.366;2023-06-10T09:13:25;23.10;99.90
33645;DHT22;19986;48.190;16.366;2023-06-10T09:15:51;23.20;99.90
33645;DHT22;19986;48.190;16.366;2023-06-10T09:18:17;23.40;99.90
33645;DHT22;19986;48.190;16.366;2023-06-10T09:20:43;23.50;99.90
33645;DHT22;19986;48.190;16.366;2023-06-10T09:23:10;23.70;99.90
33645;DHT22;19986;48.190;16.366;2023-06-10T09:25:38;24.00;99.90
33645;DHT22;19986;48.190;16.366;2023-06-10T09:28:06;24.20;99.90
33645;DHT22;19986;48.190;16.366;2023-06-10T09:30:38;24.30;99.90
33645;DHT22;19986;48.190;16.366;2023-06-10T09:33:11;24.20;99.90
33645;DHT22;19986;48.190;16.366;2023-06-10T09:35:48;24.10;99.90
33645;DHT22;19986;48.190;16.366;2023-06-10T09:38:20;24.00;99.90
33645;DHT22;19986;48.190;16.366;2023-06-10T09:40:50;24.10;99.90
33645;DHT22;19986;48.190;16.366;2023-06-10T09:43:17;24.40;99.90
33645;DHT22;19986;48.190;16.366;2023-06-10T09:45:43;24.60;99.90
33645;DHT22;19986;48.190;16.366;2023-06-10T09:48:09;24.90;99.90
33645;DHT22;19986;48.190;16.366;2023-06-10T09:50:42;25.30;99.90
33645;DHT22;19986;48.190;16.366;2023-06-10T09:53:09;25.30;99.90
33645;DHT22;19986;48.190;16.366;2023-06-10T09:55:39;25.50;99.90
33645;DHT22;19986;48.190;16.366;2023-06-10T09:58:08;26.10;99.90
33645;DHT22;19986;48.190;16.366;2023-06-10T10:00:34;27.10;99.90
33645;DHT22;19986;48.190;16.366;2023-06-10T10:03:01;27.60;99.90
33645;DHT22;19986;48.190;16.366;2023-06-10T10:05:29;27.20;99.90
33645;DHT22;19986;48.190;16.366;2023-06-10T10:07:55;27.10;99.90
33645;DHT22;19986;48.190;16.366;2023-06-10T10:10:22;27.30;99.90
33645;DHT22;19986;48.190;16.366;2023-06-10T10:12:52;27.10;99.90
33645;DHT22;19986;48.190;16.366;2023-06-10T10:15:19;26.70;99.90
33645;DHT22;19986;48.190;16.366;2023-06-10T10:20:14;26.30;99.90
33645;DHT22;19986;48.190;16.366;2023-06-10T10:22:43;26.30;99.90
33645;DHT22;19986;48.190;16.366;2023-06-10T10:25:16;26.30;99.90
33645;DHT22;19986;48.190;16.366;2023-06-10T10:27:50;26.40;99.90
33645;DHT22;19986;48.190;16.366;2023-06-10T10:30:17;26.70;99.90
33645;DHT22;19986;48.190;16.366;2023-06-10T10:32:58;26.80;99.90
33645;DHT22;19986;48.190;16.366;2023-06-10T10:35:27;26.90;99.90
33645;DHT22;19986;48.190;16.366;2023-06-10T10:37:54;27.10;99.90
33645;DHT22;19986;48.190;16.366;2023-06-10T10:40:24;27.10;99.90
33645;DHT22;19986;48.190;16.366;2023-06-10T10:42:52;27.70;99.90
33645;DHT22;19986;48.190;16.366;2023-06-10T10:45:18;28.80;99.90
33645;DHT22;19986;48.190;16.366;2023-06-10T10:47:51;28.90;99.90
33645;DHT22;19986;48.190;16.366;2023-06-10T10:50:19;30.10;99.90
33645;DHT22;19986;48.190;16.366;2023-06-10T10:52:54;31.80;99.90
33645;DHT22;19986;48.190;16.366;2023-06-10T10:55:23;32.70;99.90
33645;DHT22;19986;48.190;16.366;2023-06-10T10:57:56;32.50;99.90
33645;DHT22;19986;48.190;16.366;2023-06-10T11:00:31;32.40;99.90
33645;DHT22;19986;48.190;16.366;2023-06-10T11:03:07;31.50;99.90
33645;DHT22;19986;48.190;16.366;2023-06-10T11:05:42;30.50;99.90
33645;DHT22;19986;48.190;16.366;2023-06-10T11:08:11;29.70;99.90
33645;DHT22;19986;48.190;16.366;2023-06-10T11:10:42;29.10;99.90
33645;DHT22;19986;48.190;16.366;2023-06-10T11:13:18;28.90;99.90
33645;DHT22;19986;48.190;16.366;2023-06-10T11:15:46;28.80;99.90
33645;DHT22;19986;48.190;16.366;2023-06-10T11:18:20;28.70;99.90
33645;DHT22;19986;48.190;16.366;2023-06-10T11:26:18;29.00;99.90
33645;DHT22;19986;48.190;16.366;2023-06-10T11:31:28;31.00;99.90
33645;DHT22;19986;48.190;16.366;2023-06-10T11:33:59;31.10;99.90
33645;DHT22;19986;48.190;16.366;2023-06-10T11:36:26;30.60;99.90
33645;DHT22;19986;48.190;16.366;2023-06-10T11:39:00;30.00;99.90
33645;DHT22;19986;48.190;16.366;2023-06-10T11:41:28;29.70;99.90
33645;DHT22;19986;48.190;16.366;2023-06-10T11:43:57;30.30;99.90
33645;DHT22;19986;48.190;16.366;2023-06-10T11:46:26;30.80;99.90
33645;DHT22;19986;48.190;16.366;2023-06-10T11:48:55;30.60;99.90
33645;DHT22;19986;48.190;16.366;2023-06-10T11:51:22;30.10;99.90
33645;DHT22;19986;48.190;16.366;2023-06-10T11:53:49;29.30;99.90
33645;DHT22;19986;48.190;16.366;2023-06-10T11:58:55;28.50;99.90
33645;DHT22;19986;48.190;16.366;2023-06-10T12:01:24;28.50;99.90
33645;DHT22;19986;48.190;16.366;2023-06-10T12:04:04;28.40;99.90
33645;DHT22;19986;48.190;16.366;2023-06-10T12:06:44;28.40;99.90
33645;DHT22;19986;48.190;16.366;2023-06-10T12:09:30;28.40;99.90
33645;DHT22;19986;48.190;16.366;2023-06-10T12:12:03;28.70;99.90
33645;DHT22;19986;48.190;16.366;2023-06-10T12:14:54;28.70;99.90
33645;DHT22;19986;48.190;16.366;2023-06-10T12:17:22;28.60;99.90
33645;DHT22;19986;48.190;16.366;2023-06-10T12:19:49;28.70;99.90
33645;DHT22;19986;48.190;16.366;2023-06-10T12:22:15;29.20;99.90
33645;DHT22;19986;48.190;16.366;2023-06-10T12:25:01;29.30;99.90
33645;DHT22;19986;48.190;16.366;2023-06-10T12:27:29;29.10;99.90
33645;DHT22;19986;48.190;16.366;2023-06-10T12:29:56;29.00;99.90
33645;DHT22;19986;48.190;16.366;2023-06-10T12:32:36;28.90;99.90
33645;DHT22;19986;48.190;16.366;2023-06-10T12:35:04;28.80;99.90
33645;DHT22;19986;48.190;16.366;2023-06-10T12:37:30;28.40;99.90
33645;DHT22;19986;48.190;16.366;2023-06-10T12:40:01;28.00;99.90
33645;DHT22;19986;48.190;16.366;2023-06-10T12:42:29;27.60;99.90
33645;DHT22;19986;48.190;16.366;2023-06-10T12:44:56;27.30;99.90
33645;DHT22;19986;48.190;16.366;2023-06-10T12:47:36;27.20;99.90
33645;DHT22;19986;48.190;16.366;2023-06-10T12:50:03;27.10;99.90
33645;DHT22;19986;48.190;16.366;2023-06-10T12:52:30;26.70;99.90
33645;DHT22;19986;48.190;16.366;2023-06-10T12:54:56;25.90;99.90
33645;DHT22;19986;48.190;16.366;2023-06-10T12:57:22;25.50;99.90
33645;DHT22;19986;48.190;16.366;2023-06-10T12:59:48;24.90;99.90
33645;DHT22;19986;48.190;16.366;2023-06-10T13:02:25;24.60;99.90
33645;DHT22;19986;48.190;16.366;2023-06-10T13:04:51;24.30;99.90
33645;DHT22;19986;48.190;16.366;2023-06-10T13:07:17;24.30;99.90
33645;DHT22;19986;48.190;16.366;2023-06-10T13:09:44;24.40;99.90
33645;DHT22;19986;48.190;16.366;2023-06-10T13:12:10;24.50;99.90
33645;DHT22;19986;48.190;16.366;2023-06-10T13:14:37;24.50;99.90
33645;DHT22;19986;48.190;16.366;2023-06-10T13:17:04;24.60;99.90
33645;DHT22;19986;48.190;16.366;2023-06-10T13:19:32;24.70;99.90
33645;DHT22;19986;48.190;16.366;2023-06-10T13:22:03;24.90;99.90
33645;DHT22;19986;48.190;16.366;2023-06-10T13:24:29;25.10;99.90
33645;DHT22;19986;48.190;16.366;2023-06-10T13:26:55;25.20;99.90
33645;DHT22;19986;48.190;16.366;2023-06-10T13:29:22;25.30;99.90
33645;DHT22;19986;48.190;16.366;2023-06-10T13:31:48;25.40;99.90
33645;DHT22;19986;48.190;16.366;2023-06-10T13:34:13;25.30;99.90
33645;DHT22;19986;48.190;16.366;2023-06-10T13:36:40;25.30;99.90
33645;DHT22;19986;48.190;16.366;2023-06-10T13:39:05;25.40;99.90
33645;DHT22;19986;48.190;16.366;2023-06-10T13:41:31;25.50;99.90
33645;DHT22;19986;48.190;16.366;2023-06-10T13:43:58;25.50;99.90
33645;DHT22;19986;48.190;16.366;2023-06-10T13:46:24;25.60;99.90
33645;DHT22;19986;48.190;16.366;2023-06-10T13:48:49;25.50;99.90
33645;DHT22;19986;48.190;16.366;2023-06-10T13:51:15;25.60;99.90
33645;DHT22;19986;48.190;16.366;2023-06-10T13:53:41;25.70;99.90
33645;DHT22;19986;48.190;16.366;2023-06-10T13:56:08;25.70;99.90
33645;DHT22;19986;48.190;16.366;2023-06-10T13:58:34;25.70;99.90
33645;DHT22;19986;48.190;16.366;2023-06-10T14:01:05;25.80;99.90
33645;DHT22;19986;48.190;16.366;2023-06-10T14:03:31;25.70;99.90
33645;DHT22;19986;48.190;16.366;2023-06-10T14:05:56;25.60;99.90
33645;DHT22;19986;48.190;16.366;2023-06-10T14:08:22;25.50;99.90
33645;DHT22;19986;48.190;16.366;2023-06-10T14:10:49;25.50;99.90
33645;DHT22;19986;48.190;16.366;2023-06-10T14:13:16;25.50;99.90
33645;DHT22;19986;48.190;16.366;2023-06-10T14:15:43;25.50;99.90
33645;DHT22;19986;48.190;16.366;2023-06-10T14:18:08;25.50;99.90
33645;DHT22;19986;48.190;16.366;2023-06-10T14:20:34;25.60;99.90
33645;DHT22;19986;48.190;16.366;2023-06-10T14:23:00;25.70;99.90
33645;DHT22;19986;48.190;16.366;2023-06-10T14:25:26;25.80;99.90
33645;DHT22;19986;48.190;16.366;2023-06-10T14:27:52;25.90;99.90
33645;DHT22;19986;48.190;16.366;2023-06-10T14:30:18;25.90;99.90
33645;DHT22;19986;48.190;16.366;2023-06-10T14:32:44;26.00;99.90
33645;DHT22;19986;48.190;16.366;2023-06-10T14:35:10;25.90;99.90
33645;DHT22;19986;48.190;16.366;2023-06-10T14:37:36;25.80;99.90
33645;DHT22;19986;48.190;16.366;2023-06-10T14:40:04;25.80;99.90
33645;DHT22;19986;48.190;16.366;2023-06-10T14:42:30;25.80;99.90
33645;DHT22;19986;48.190;16.366;2023-06-10T14:44:59;25.80;99.90
33645;DHT22;19986;48.190;16.366;2023-06-10T14:47:25;25.90;99.90
33645;DHT22;19986;48.190;16.366;2023-06-10T14:49:51;26.10;99.90
33645;DHT22;19986;48.190;16.366;2023-06-10T14:52:17;26.30;99.90
33645;DHT22;19986;48.190;16.366;2023-06-10T14:54:43;26.40;99.90
33645;DHT22;19986;48.190;16.366;2023-06-10T14:57:08;26.40;99.90
33645;DHT22;19986;48.190;16.366;2023-06-10T14:59:36;26.60;99.90
33645;DHT22;19986;48.190;16.366;2023-06-10T15:02:01;26.60;99.90
33645;DHT22;19986;48.190;16.366;2023-06-10T15:04:28;26.70;99.90
33645;DHT22;19986;48.190;16.366;2023-06-10T15:06:54;26.80;99.90
33645;DHT22;19986;48.190;16.366;2023-06-10T15:09:20;26.70;99.90
33645;DHT22;19986;48.190;16.366;2023-06-10T15:11:46;26.80;99.90
33645;DHT22;19986;48.190;16.366;2023-06-10T15:14:12;26.80;99.90
33645;DHT22;19986;48.190;16.366;2023-06-10T15:16:38;26.90;99.90
33645;DHT22;19986;48.190;16.366;2023-06-10T15:19:04;27.00;99.90
33645;DHT22;19986;48.190;16.366;2023-06-10T15:21:32;27.00;99.90
33645;DHT22;19986;48.190;16.366;2023-06-10T15:23:58;27.10;99.90
33645;DHT22;19986;48.190;16.366;2023-06-10T15:26:24;27.10;99.90
33645;DHT22;19986;48.190;16.366;2023-06-10T15:28:51;27.00;99.90
33645;DHT22;19986;48.190;16.366;2023-06-10T15:31:16;27.00;99.90